Aérodrome :
LOGIN :

S'inscrire | Disclaimer

   EN    FR    IT 

 










Légende :    VFR   VFR Marginal   IFR   IFR Intensif   IFR Très Intensif
Visi : 
Plafond : 
>= 8 km
>= 3000ft
5 à 8 km
1000 à 3000 ft
1500m à 5 km
500 à 1000 ft
800 à 1500m
200 à 500 ft
< 800m
< 200 ft
Symboles :   Orages  Brouillard  Fortes neiges  Fortes précipitations  Vent > 20 kt
SIGMETs :   Divers  Orages  Givrage  Turbulence  Onde Orograph.  Cendres Volcan.







- Altitude de l'aérodrome : -11 ft
- Code IATA : AMS


EHAM - Amsterdam Schiphol

DERNIER METAR :
  • 141655Z 14006KT CAVOK 08/07 Q1025 NOSIG

METARs EXPIRÉS :
  • 141625Z 15007KT CAVOK 09/08 Q1025 NOSIG
  • 141555Z 16008KT CAVOK 11/08 Q1025 NOSIG
  • 141525Z 17009KT CAVOK 11/08 Q1025 NOSIG
  • 141455Z 17009KT 9999 FEW017 12/09 Q1025 NOSIG
  • 141425Z 18011KT 9999 FEW017 12/09 Q1025 NOSIG

TAF TAF EHAM
Valide du 14 à 12h jusqu'au 15 à 18h UTC


141051Z 1412/1518 18010KT CAVOK
BECMG 1415/1418 15007KT
BECMG 1423/1502 6000
PROB40 1503/1510 2500 BR BKN005
BECMG 1508/1511 CAVOK
Pas de NOTAMs connus pour ce terrain.



MET'MAP, la Météo Aéronautique d'un coup d'oeil ! - Copyright ORBIFLY Décembre 2007 - Disclaimer

ORBIFLY MET'MAP TEAM :

Programmation & Développement : Alexandra Zaïnal
Conception & Développement : Baudouin d'Aumeries
Co-Programmation & Développement : Marc-Olivier Méhu
Soutien technique & logistique : Manuel Goepfert

Contact : metmap@orbifly.com




SOURCES & CREDITS :

   NOAA